sensor_id;sensor_type;location;lat;lon;timestamp;P1;durP1;ratioP1;P2;durP2;ratioP2
50056;SDS011;36875;49.468;11.200;2023-04-01T00:00:30;0.65;;;0.22;;
50056;SDS011;36875;49.468;11.200;2023-04-01T00:02:56;0.65;;;0.13;;
50056;SDS011;36875;49.468;11.200;2023-04-01T00:05:22;0.45;;;0.20;;
50056;SDS011;36875;49.468;11.200;2023-04-01T00:07:49;0.45;;;0.45;;
50056;SDS011;36875;49.468;11.200;2023-04-01T00:10:17;0.45;;;0.20;;
50056;SDS011;36875;49.468;11.200;2023-04-01T00:12:42;0.40;;;0.28;;
50056;SDS011;36875;49.468;11.200;2023-04-01T00:15:09;0.20;;;0.10;;
50056;SDS011;36875;49.468;11.200;2023-04-01T00:17:36;0.25;;;0.20;;
50056;SDS011;36875;49.468;11.200;2023-04-01T00:20:06;0.30;;;0.15;;
50056;SDS011;36875;49.468;11.200;2023-04-01T00:22:33;0.20;;;0.20;;
50056;SDS011;36875;49.468;11.200;2023-04-01T00:24:59;1.20;;;0.25;;
50056;SDS011;36875;49.468;11.200;2023-04-01T00:27:26;1.08;;;0.40;;
50056;SDS011;36875;49.468;11.200;2023-04-01T00:29:51;0.98;;;0.20;;
50056;SDS011;36875;49.468;11.200;2023-04-01T00:32:17;0.43;;;0.10;;
50056;SDS011;36875;49.468;11.200;2023-04-01T00:34:42;0.10;;;0.10;;
50056;SDS011;36875;49.468;11.200;2023-04-01T00:37:09;0.70;;;0.20;;
50056;SDS011;36875;49.468;11.200;2023-04-01T00:39:35;0.43;;;0.10;;
50056;SDS011;36875;49.468;11.200;2023-04-01T00:42:01;0.10;;;0.10;;
50056;SDS011;36875;49.468;11.200;2023-04-01T00:44:30;0.85;;;0.20;;
50056;SDS011;36875;49.468;11.200;2023-04-01T00:46:58;0.20;;;0.20;;
50056;SDS011;36875;49.468;11.200;2023-04-01T00:49:24;0.40;;;0.15;;
50056;SDS011;36875;49.468;11.200;2023-04-01T00:51:54;0.10;;;0.10;;
50056;SDS011;36875;49.468;11.200;2023-04-01T00:54:22;0.52;;;0.20;;
50056;SDS011;36875;49.468;11.200;2023-04-01T00:56:50;0.28;;;0.10;;
50056;SDS011;36875;49.468;11.200;2023-04-01T00:59:22;0.13;;;0.10;;
50056;SDS011;36875;49.468;11.200;2023-04-01T01:01:53;0.60;;;0.35;;
50056;SDS011;36875;49.468;11.200;2023-04-01T01:04:23;0.52;;;0.20;;
50056;SDS011;36875;49.468;11.200;2023-04-01T01:09:24;0.20;;;0.10;;
50056;SDS011;36875;49.468;11.200;2023-04-01T01:11:54;0.38;;;0.20;;
50056;SDS011;36875;49.468;11.200;2023-04-01T01:14:32;0.43;;;0.10;;
50056;SDS011;36875;49.468;11.200;2023-04-01T01:17:07;0.45;;;0.32;;
50056;SDS011;36875;49.468;11.200;2023-04-01T01:19:47;0.35;;;0.20;;
50056;SDS011;36875;49.468;11.200;2023-04-01T01:22:26;0.28;;;0.10;;
50056;SDS011;36875;49.468;11.200;2023-04-01T01:25:18;0.38;;;0.15;;
50056;SDS011;36875;49.468;11.200;2023-04-01T01:27:58;0.30;;;0.17;;
50056;SDS011;36875;49.468;11.200;2023-04-01T01:30:41;0.20;;;0.20;;
50056;SDS011;36875;49.468;11.200;2023-04-01T01:33:19;0.40;;;0.20;;
50056;SDS011;36875;49.468;11.200;2023-04-01T01:35:57;0.30;;;0.10;;
50056;SDS011;36875;49.468;11.200;2023-04-01T01:38:27;0.85;;;0.30;;
50056;SDS011;36875;49.468;11.200;2023-04-01T01:40:56;0.13;;;0.10;;
50056;SDS011;36875;49.468;11.200;2023-04-01T01:43:24;0.22;;;0.10;;
50056;SDS011;36875;49.468;11.200;2023-04-01T01:45:55;0.40;;;0.10;;
50056;SDS011;36875;49.468;11.200;2023-04-01T01:48:25;0.63;;;0.20;;
50056;SDS011;36875;49.468;11.200;2023-04-01T01:50:52;0.20;;;0.17;;
50056;SDS011;36875;49.468;11.200;2023-04-01T01:53:20;0.47;;;0.17;;
50056;SDS011;36875;49.468;11.200;2023-04-01T01:55:46;0.47;;;0.20;;
50056;SDS011;36875;49.468;11.200;2023-04-01T01:58:14;0.43;;;0.10;;
50056;SDS011;36875;49.468;11.200;2023-04-01T02:00:44;0.35;;;0.28;;
50056;SDS011;36875;49.468;11.200;2023-04-01T02:03:14;0.20;;;0.20;;
50056;SDS011;36875;49.468;11.200;2023-04-01T02:05:40;0.40;;;0.20;;
50056;SDS011;36875;49.468;11.200;2023-04-01T02:08:07;0.10;;;0.08;;
50056;SDS011;36875;49.468;11.200;2023-04-01T02:10:39;0.38;;;0.10;;
50056;SDS011;36875;49.468;11.200;2023-04-01T02:13:10;0.30;;;0.10;;
50056;SDS011;36875;49.468;11.200;2023-04-01T02:15:42;0.20;;;0.10;;
50056;SDS011;36875;49.468;11.200;2023-04-01T02:18:12;0.73;;;0.10;;
50056;SDS011;36875;49.468;11.200;2023-04-01T02:20:39;0.15;;;0.15;;
50056;SDS011;36875;49.468;11.200;2023-04-01T02:23:06;0.22;;;0.10;;
50056;SDS011;36875;49.468;11.200;2023-04-01T02:25:35;0.13;;;0.10;;
50056;SDS011;36875;49.468;11.200;2023-04-01T02:28:04;0.30;;;0.10;;
50056;SDS011;36875;49.468;11.200;2023-04-01T02:30:31;0.10;;;0.10;;
50056;SDS011;36875;49.468;11.200;2023-04-01T02:32:59;0.38;;;0.10;;
50056;SDS011;36875;49.468;11.200;2023-04-01T02:35:26;1.42;;;0.17;;
50056;SDS011;36875;49.468;11.200;2023-04-01T02:37:52;0.32;;;0.10;;
50056;SDS011;36875;49.468;11.200;2023-04-01T02:40:19;0.15;;;0.15;;
50056;SDS011;36875;49.468;11.200;2023-04-01T02:42:45;0.30;;;0.20;;
50056;SDS011;36875;49.468;11.200;2023-04-01T02:45:12;0.20;;;0.10;;
50056;SDS011;36875;49.468;11.200;2023-04-01T02:47:38;0.10;;;0.10;;
50056;SDS011;36875;49.468;11.200;2023-04-01T02:50:04;0.10;;;0.10;;
50056;SDS011;36875;49.468;11.200;2023-04-01T02:52:31;0.20;;;0.20;;
50056;SDS011;36875;49.468;11.200;2023-04-01T02:54:56;0.43;;;0.20;;
50056;SDS011;36875;49.468;11.200;2023-04-01T02:57:22;0.10;;;0.10;;
50056;SDS011;36875;49.468;11.200;2023-04-01T02:59:48;0.13;;;0.10;;
50056;SDS011;36875;49.468;11.200;2023-04-01T03:02:15;0.40;;;0.20;;
50056;SDS011;36875;49.468;11.200;2023-04-01T03:04:41;0.10;;;0.10;;
50056;SDS011;36875;49.468;11.200;2023-04-01T03:07:07;0.10;;;0.10;;
50056;SDS011;36875;49.468;11.200;2023-04-01T03:09:35;0.10;;;0.10;;
50056;SDS011;36875;49.468;11.200;2023-04-01T03:12:00;0.22;;;0.10;;
50056;SDS011;36875;49.468;11.200;2023-04-01T03:14:26;0.25;;;0.10;;
50056;SDS011;36875;49.468;11.200;2023-04-01T03:16:51;0.40;;;0.20;;
50056;SDS011;36875;49.468;11.200;2023-04-01T03:19:18;0.65;;;0.10;;
50056;SDS011;36875;49.468;11.200;2023-04-01T03:21:44;0.43;;;0.10;;
50056;SDS011;36875;49.468;11.200;2023-04-01T03:24:12;0.13;;;0.10;;
50056;SDS011;36875;49.468;11.200;2023-04-01T03:26:37;0.22;;;0.10;;
50056;SDS011;36875;49.468;11.200;2023-04-01T03:29:03;0.70;;;0.20;;
50056;SDS011;36875;49.468;11.200;2023-04-01T03:31:28;0.10;;;0.10;;
50056;SDS011;36875;49.468;11.200;2023-04-01T03:33:54;0.55;;;0.15;;
50056;SDS011;36875;49.468;11.200;2023-04-01T03:36:21;0.20;;;0.10;;
50056;SDS011;36875;49.468;11.200;2023-04-01T03:38:47;0.32;;;0.10;;
50056;SDS011;36875;49.468;11.200;2023-04-01T03:41:13;0.20;;;0.10;;
50056;SDS011;36875;49.468;11.200;2023-04-01T03:43:39;0.43;;;0.20;;
50056;SDS011;36875;49.468;11.200;2023-04-01T03:46:05;0.10;;;0.10;;
50056;SDS011;36875;49.468;11.200;2023-04-01T03:48:30;0.10;;;0.10;;
50056;SDS011;36875;49.468;11.200;2023-04-01T03:50:56;0.30;;;0.10;;
50056;SDS011;36875;49.468;11.200;2023-04-01T03:53:23;0.15;;;0.10;;
50056;SDS011;36875;49.468;11.200;2023-04-01T03:55:48;0.13;;;0.13;;
50056;SDS011;36875;49.468;11.200;2023-04-01T03:58:16;0.20;;;0.10;;
50056;SDS011;36875;49.468;11.200;2023-04-01T04:00:41;0.10;;;0.10;;
50056;SDS011;36875;49.468;11.200;2023-04-01T04:03:07;0.28;;;0.10;;
50056;SDS011;36875;49.468;11.200;2023-04-01T04:05:32;0.25;;;0.10;;
50056;SDS011;36875;49.468;11.200;2023-04-01T04:07:58;0.47;;;0.10;;
50056;SDS011;36875;49.468;11.200;2023-04-01T04:10:25;0.55;;;0.20;;
50056;SDS011;36875;49.468;11.200;2023-04-01T04:12:51;0.08;;;0.08;;
50056;SDS011;36875;49.468;11.200;2023-04-01T04:15:17;0.10;;;0.10;;
50056;SDS011;36875;49.468;11.200;2023-04-01T04:17:43;0.10;;;0.10;;
50056;SDS011;36875;49.468;11.200;2023-04-01T04:20:09;0.30;;;0.10;;
50056;SDS011;36875;49.468;11.200;2023-04-01T04:22:35;0.10;;;0.10;;
50056;SDS011;36875;49.468;11.200;2023-04-01T04:25:00;0.68;;;0.10;;
50056;SDS011;36875;49.468;11.200;2023-04-01T04:27:27;0.00;;;0.00;;
50056;SDS011;36875;49.468;11.200;2023-04-01T04:29:53;0.40;;;0.05;;
50056;SDS011;36875;49.468;11.200;2023-04-01T04:32:18;0.20;;;0.00;;
50056;SDS011;36875;49.468;11.200;2023-04-01T04:34:44;0.25;;;0.10;;
50056;SDS011;36875;49.468;11.200;2023-04-01T04:37:09;0.00;;;0.00;;
50056;SDS011;36875;49.468;11.200;2023-04-01T04:39:35;0.05;;;0.00;;
50056;SDS011;36875;49.468;11.200;2023-04-01T04:42:00;0.00;;;0.00;;
50056;SDS011;36875;49.468;11.200;2023-04-01T04:44:27;0.30;;;0.10;;
50056;SDS011;36875;49.468;11.200;2023-04-01T04:46:53;0.10;;;0.10;;
50056;SDS011;36875;49.468;11.200;2023-04-01T04:49:18;0.00;;;0.00;;
50056;SDS011;36875;49.468;11.200;2023-04-01T04:51:44;0.20;;;0.10;;
50056;SDS011;36875;49.468;11.200;2023-04-01T04:54:09;0.10;;;0.10;;
50056;SDS011;36875;49.468;11.200;2023-04-01T04:56:35;0.10;;;0.10;;
50056;SDS011;36875;49.468;11.200;2023-04-01T04:59:01;0.00;;;0.00;;
50056;SDS011;36875;49.468;11.200;2023-04-01T05:01:28;0.10;;;0.10;;
50056;SDS011;36875;49.468;11.200;2023-04-01T05:03:53;0.30;;;0.17;;
50056;SDS011;36875;49.468;11.200;2023-04-01T05:06:19;0.38;;;0.20;;
50056;SDS011;36875;49.468;11.200;2023-04-01T05:08:45;0.20;;;0.10;;
50056;SDS011;36875;49.468;11.200;2023-04-01T05:11:11;0.20;;;0.10;;
50056;SDS011;36875;49.468;11.200;2023-04-01T05:13:38;0.08;;;0.05;;
50056;SDS011;36875;49.468;11.200;2023-04-01T05:16:07;0.10;;;0.10;;
50056;SDS011;36875;49.468;11.200;2023-04-01T05:18:34;0.40;;;0.40;;
50056;SDS011;36875;49.468;11.200;2023-04-01T05:21:00;0.10;;;0.10;;
50056;SDS011;36875;49.468;11.200;2023-04-01T05:23:25;0.10;;;0.10;;
50056;SDS011;36875;49.468;11.200;2023-04-01T05:25:51;0.00;;;0.00;;
50056;SDS011;36875;49.468;11.200;2023-04-01T05:28:18;0.50;;;0.10;;
50056;SDS011;36875;49.468;11.200;2023-04-01T05:30:44;0.10;;;0.10;;
50056;SDS011;36875;49.468;11.200;2023-04-01T05:33:10;0.17;;;0.10;;
50056;SDS011;36875;49.468;11.200;2023-04-01T05:35:37;0.05;;;0.03;;
50056;SDS011;36875;49.468;11.200;2023-04-01T05:38:03;0.25;;;0.00;;
50056;SDS011;36875;49.468;11.200;2023-04-01T05:40:30;0.00;;;0.00;;
50056;SDS011;36875;49.468;11.200;2023-04-01T05:42:56;0.10;;;0.10;;
50056;SDS011;36875;49.468;11.200;2023-04-01T05:45:22;0.22;;;0.10;;
50056;SDS011;36875;49.468;11.200;2023-04-01T05:47:48;0.03;;;0.03;;
50056;SDS011;36875;49.468;11.200;2023-04-01T05:50:13;0.10;;;0.10;;
50056;SDS011;36875;49.468;11.200;2023-04-01T05:52:41;0.32;;;0.10;;
50056;SDS011;36875;49.468;11.200;2023-04-01T05:55:07;0.08;;;0.08;;
50056;SDS011;36875;49.468;11.200;2023-04-01T05:57:33;0.10;;;0.10;;
50056;SDS011;36875;49.468;11.200;2023-04-01T05:59:59;0.40;;;0.10;;
50056;SDS011;36875;49.468;11.200;2023-04-01T06:02:25;0.10;;;0.10;;
50056;SDS011;36875;49.468;11.200;2023-04-01T06:04:51;0.10;;;0.00;;
50056;SDS011;36875;49.468;11.200;2023-04-01T06:07:25;0.35;;;0.15;;
50056;SDS011;36875;49.468;11.200;2023-04-01T06:09:54;0.00;;;0.00;;
50056;SDS011;36875;49.468;11.200;2023-04-01T06:12:26;0.10;;;0.10;;
50056;SDS011;36875;49.468;11.200;2023-04-01T06:15:09;0.10;;;0.10;;
50056;SDS011;36875;49.468;11.200;2023-04-01T06:17:45;0.13;;;0.10;;
50056;SDS011;36875;49.468;11.200;2023-04-01T06:20:25;0.17;;;0.00;;
50056;SDS011;36875;49.468;11.200;2023-04-01T06:23:05;0.25;;;0.10;;
50056;SDS011;36875;49.468;11.200;2023-04-01T06:25:50;0.10;;;0.08;;
50056;SDS011;36875;49.468;11.200;2023-04-01T06:31:38;0.13;;;0.13;;
50056;SDS011;36875;49.468;11.200;2023-04-01T06:34:17;0.13;;;0.10;;
50056;SDS011;36875;49.468;11.200;2023-04-01T06:37:15;0.10;;;0.05;;
50056;SDS011;36875;49.468;11.200;2023-04-01T06:40:00;0.10;;;0.10;;
50056;SDS011;36875;49.468;11.200;2023-04-01T06:42:39;0.35;;;0.10;;
50056;SDS011;36875;49.468;11.200;2023-04-01T06:45:20;0.10;;;0.03;;
50056;SDS011;36875;49.468;11.200;2023-04-01T06:47:59;44.80;;;4.57;;
50056;SDS011;36875;49.468;11.200;2023-04-01T06:50:36;2.95;;;0.47;;
50056;SDS011;36875;49.468;11.200;2023-04-01T06:53:10;3.15;;;0.55;;
50056;SDS011;36875;49.468;11.200;2023-04-01T06:55:43;8.25;;;0.70;;
50056;SDS011;36875;49.468;11.200;2023-04-01T06:58:16;10.90;;;0.77;;
50056;SDS011;36875;49.468;11.200;2023-04-01T07:00:46;4.22;;;0.38;;
50056;SDS011;36875;49.468;11.200;2023-04-01T07:03:16;4.50;;;0.60;;
50056;SDS011;36875;49.468;11.200;2023-04-01T07:05:46;1.90;;;0.52;;
50056;SDS011;36875;49.468;11.200;2023-04-01T07:08:13;2.45;;;0.70;;
50056;SDS011;36875;49.468;11.200;2023-04-01T07:10:46;5.53;;;0.70;;
50056;SDS011;36875;49.468;11.200;2023-04-01T07:13:18;5.95;;;0.63;;
50056;SDS011;36875;49.468;11.200;2023-04-01T07:15:50;5.05;;;0.73;;
50056;SDS011;36875;49.468;11.200;2023-04-01T07:18:24;4.53;;;0.60;;
50056;SDS011;36875;49.468;11.200;2023-04-01T07:20:57;5.22;;;0.55;;
50056;SDS011;36875;49.468;11.200;2023-04-01T07:23:24;5.55;;;0.68;;
50056;SDS011;36875;49.468;11.200;2023-04-01T07:25:54;7.57;;;0.77;;
50056;SDS011;36875;49.468;11.200;2023-04-01T07:28:26;86.20;;;43.40;;
50056;SDS011;36875;49.468;11.200;2023-04-01T07:30:58;18.15;;;8.68;;
50056;SDS011;36875;49.468;11.200;2023-04-01T07:33:37;11.55;;;6.20;;
50056;SDS011;36875;49.468;11.200;2023-04-01T07:36:07;17.95;;;5.82;;
50056;SDS011;36875;49.468;11.200;2023-04-01T07:38:40;15.73;;;4.53;;
50056;SDS011;36875;49.468;11.200;2023-04-01T07:41:16;18.38;;;9.48;;
50056;SDS011;36875;49.468;11.200;2023-04-01T07:43:58;11.15;;;4.90;;
50056;SDS011;36875;49.468;11.200;2023-04-01T07:49:22;8.43;;;4.03;;
50056;SDS011;36875;49.468;11.200;2023-04-01T07:51:56;14.68;;;3.83;;
50056;SDS011;36875;49.468;11.200;2023-04-01T07:54:28;12.13;;;3.33;;
50056;SDS011;36875;49.468;11.200;2023-04-01T07:57:01;5.80;;;3.00;;
50056;SDS011;36875;49.468;11.200;2023-04-01T07:59:34;7.13;;;3.05;;
50056;SDS011;36875;49.468;11.200;2023-04-01T08:02:12;8.93;;;2.58;;
50056;SDS011;36875;49.468;11.200;2023-04-01T08:04:48;9.23;;;2.63;;
50056;SDS011;36875;49.468;11.200;2023-04-01T08:07:25;5.65;;;1.85;;
50056;SDS011;36875;49.468;11.200;2023-04-01T08:09:55;10.77;;;2.28;;
50056;SDS011;36875;49.468;11.200;2023-04-01T08:12:29;6.72;;;1.95;;
50056;SDS011;36875;49.468;11.200;2023-04-01T08:15:07;8.90;;;2.10;;
50056;SDS011;36875;49.468;11.200;2023-04-01T08:17:41;14.27;;;9.25;;
50056;SDS011;36875;49.468;11.200;2023-04-01T08:20:18;10.60;;;2.75;;
50056;SDS011;36875;49.468;11.200;2023-04-01T08:22:53;11.90;;;2.47;;
50056;SDS011;36875;49.468;11.200;2023-04-01T08:25:26;13.85;;;2.95;;
50056;SDS011;36875;49.468;11.200;2023-04-01T08:27:54;14.05;;;2.63;;
50056;SDS011;36875;49.468;11.200;2023-04-01T08:30:27;12.57;;;2.28;;
50056;SDS011;36875;49.468;11.200;2023-04-01T08:32:59;15.80;;;2.75;;
50056;SDS011;36875;49.468;11.200;2023-04-01T08:35:31;22.20;;;3.25;;
50056;SDS011;36875;49.468;11.200;2023-04-01T08:38:04;14.25;;;2.72;;
50056;SDS011;36875;49.468;11.200;2023-04-01T08:40:50;12.80;;;2.80;;
50056;SDS011;36875;49.468;11.200;2023-04-01T08:43:23;18.90;;;2.65;;
50056;SDS011;36875;49.468;11.200;2023-04-01T08:46:05;20.40;;;3.10;;
50056;SDS011;36875;49.468;11.200;2023-04-01T08:48:45;13.02;;;2.38;;
50056;SDS011;36875;49.468;11.200;2023-04-01T08:51:47;16.55;;;2.90;;
50056;SDS011;36875;49.468;11.200;2023-04-01T08:54:45;11.82;;;2.20;;
50056;SDS011;36875;49.468;11.200;2023-04-01T08:57:21;14.55;;;2.40;;
50056;SDS011;36875;49.468;11.200;2023-04-01T09:00:03;17.60;;;2.50;;
50056;SDS011;36875;49.468;11.200;2023-04-01T09:02:46;12.70;;;2.78;;
50056;SDS011;36875;49.468;11.200;2023-04-01T09:05:24;12.88;;;2.13;;
50056;SDS011;36875;49.468;11.200;2023-04-01T09:07:59;15.90;;;5.40;;
50056;SDS011;36875;49.468;11.200;2023-04-01T09:10:52;11.55;;;4.75;;
50056;SDS011;36875;49.468;11.200;2023-04-01T09:13:29;14.20;;;4.85;;
50056;SDS011;36875;49.468;11.200;2023-04-01T09:19:02;14.75;;;4.10;;
50056;SDS011;36875;49.468;11.200;2023-04-01T09:21:43;15.60;;;3.43;;
50056;SDS011;36875;49.468;11.200;2023-04-01T09:24:33;12.48;;;3.30;;
50056;SDS011;36875;49.468;11.200;2023-04-01T09:27:10;16.40;;;4.15;;
50056;SDS011;36875;49.468;11.200;2023-04-01T09:29:50;10.20;;;3.28;;
50056;SDS011;36875;49.468;11.200;2023-04-01T09:32:42;17.70;;;3.35;;
50056;SDS011;36875;49.468;11.200;2023-04-01T09:35:24;16.80;;;3.15;;
50056;SDS011;36875;49.468;11.200;2023-04-01T09:37:59;13.15;;;3.00;;
50056;SDS011;36875;49.468;11.200;2023-04-01T09:40:36;8.10;;;2.35;;
50056;SDS011;36875;49.468;11.200;2023-04-01T09:43:22;12.50;;;2.55;;
50056;SDS011;36875;49.468;11.200;2023-04-01T09:45:55;10.32;;;2.65;;
50056;SDS011;36875;49.468;11.200;2023-04-01T09:48:35;12.52;;;2.63;;
50056;SDS011;36875;49.468;11.200;2023-04-01T09:51:27;13.13;;;3.03;;
50056;SDS011;36875;49.468;11.200;2023-04-01T09:54:04;8.63;;;2.20;;
50056;SDS011;36875;49.468;11.200;2023-04-01T10:02:44;9.40;;;2.13;;
50056;SDS011;36875;49.468;11.200;2023-04-01T10:08:56;12.32;;;2.30;;
50056;SDS011;36875;49.468;11.200;2023-04-01T10:18:28;12.00;;;2.60;;
50056;SDS011;36875;49.468;11.200;2023-04-01T10:24:47;13.05;;;2.42;;
50056;SDS011;36875;49.468;11.200;2023-04-01T10:33:47;11.38;;;3.10;;
50056;SDS011;36875;49.468;11.200;2023-04-01T10:36:41;13.45;;;2.55;;
50056;SDS011;36875;49.468;11.200;2023-04-01T10:39:29;11.38;;;2.85;;
50056;SDS011;36875;49.468;11.200;2023-04-01T10:42:27;17.90;;;2.75;;
50056;SDS011;36875;49.468;11.200;2023-04-01T10:45:35;18.40;;;2.72;;
50056;SDS011;36875;49.468;11.200;2023-04-01T10:48:23;12.18;;;2.42;;
50056;SDS011;36875;49.468;11.200;2023-04-01T10:51:12;16.20;;;3.20;;
50056;SDS011;36875;49.468;11.200;2023-04-01T10:53:49;12.98;;;3.05;;
50056;SDS011;36875;49.468;11.200;2023-04-01T10:56:38;11.43;;;2.10;;
50056;SDS011;36875;49.468;11.200;2023-04-01T10:59:13;13.10;;;2.50;;
50056;SDS011;36875;49.468;11.200;2023-04-01T11:05:05;13.50;;;2.60;;
50056;SDS011;36875;49.468;11.200;2023-04-01T11:11:15;11.45;;;2.50;;
50056;SDS011;36875;49.468;11.200;2023-04-01T11:14:24;10.38;;;1.88;;
50056;SDS011;36875;49.468;11.200;2023-04-01T11:17:10;11.85;;;2.17;;
50056;SDS011;36875;49.468;11.200;2023-04-01T11:20:13;11.85;;;2.42;;
50056;SDS011;36875;49.468;11.200;2023-04-01T11:23:13;13.02;;;2.10;;
50056;SDS011;36875;49.468;11.200;2023-04-01T11:28:37;10.07;;;2.08;;
50056;SDS011;36875;49.468;11.200;2023-04-01T11:31:19;10.25;;;2.30;;
50056;SDS011;36875;49.468;11.200;2023-04-01T11:34:04;9.88;;;1.80;;
50056;SDS011;36875;49.468;11.200;2023-04-01T11:36:43;5.93;;;1.80;;
50056;SDS011;36875;49.468;11.200;2023-04-01T11:39:20;7.35;;;2.03;;
50056;SDS011;36875;49.468;11.200;2023-04-01T11:41:56;8.25;;;1.95;;
50056;SDS011;36875;49.468;11.200;2023-04-01T11:44:28;8.52;;;1.95;;
50056;SDS011;36875;49.468;11.200;2023-04-01T11:49:50;9.75;;;2.00;;
50056;SDS011;36875;49.468;11.200;2023-04-01T11:52:32;9.05;;;1.80;;
50056;SDS011;36875;49.468;11.200;2023-04-01T11:55:16;10.10;;;1.60;;
50056;SDS011;36875;49.468;11.200;2023-04-01T11:57:51;11.00;;;1.58;;
50056;SDS011;36875;49.468;11.200;2023-04-01T12:03:26;7.80;;;2.20;;
50056;SDS011;36875;49.468;11.200;2023-04-01T12:06:13;5.93;;;1.85;;
50056;SDS011;36875;49.468;11.200;2023-04-01T12:08:45;5.95;;;1.45;;
50056;SDS011;36875;49.468;11.200;2023-04-01T12:11:20;6.85;;;1.60;;
50056;SDS011;36875;49.468;11.200;2023-04-01T12:13:56;9.30;;;1.90;;
50056;SDS011;36875;49.468;11.200;2023-04-01T12:16:49;5.53;;;1.38;;
50056;SDS011;36875;49.468;11.200;2023-04-01T12:19:26;5.57;;;1.75;;
50056;SDS011;36875;49.468;11.200;2023-04-01T12:22:08;6.95;;;1.50;;
50056;SDS011;36875;49.468;11.200;2023-04-01T12:24:48;10.23;;;1.67;;
50056;SDS011;36875;49.468;11.200;2023-04-01T12:30:18;6.10;;;1.30;;
50056;SDS011;36875;49.468;11.200;2023-04-01T12:32:54;4.78;;;1.27;;
50056;SDS011;36875;49.468;11.200;2023-04-01T12:35:32;6.63;;;1.70;;
50056;SDS011;36875;49.468;11.200;2023-04-01T12:38:15;7.88;;;1.52;;
50056;SDS011;36875;49.468;11.200;2023-04-01T12:43:51;6.35;;;1.23;;
50056;SDS011;36875;49.468;11.200;2023-04-01T12:46:26;7.35;;;1.38;;
50056;SDS011;36875;49.468;11.200;2023-04-01T12:49:13;6.13;;;1.00;;
50056;SDS011;36875;49.468;11.200;2023-04-01T12:51:59;6.85;;;1.30;;
50056;SDS011;36875;49.468;11.200;2023-04-01T12:57:29;8.27;;;1.95;;
50056;SDS011;36875;49.468;11.200;2023-04-01T13:00:12;11.65;;;1.80;;
50056;SDS011;36875;49.468;11.200;2023-04-01T13:02:54;15.93;;;5.72;;
50056;SDS011;36875;49.468;11.200;2023-04-01T13:08:39;14.82;;;3.35;;
50056;SDS011;36875;49.468;11.200;2023-04-01T13:11:14;11.05;;;3.30;;
50056;SDS011;36875;49.468;11.200;2023-04-01T13:13:49;12.15;;;3.50;;
50056;SDS011;36875;49.468;11.200;2023-04-01T13:16:36;11.07;;;2.88;;
50056;SDS011;36875;49.468;11.200;2023-04-01T13:19:07;9.45;;;3.40;;
50056;SDS011;36875;49.468;11.200;2023-04-01T13:21:44;12.77;;;3.03;;
50056;SDS011;36875;49.468;11.200;2023-04-01T13:24:26;13.43;;;2.95;;
50056;SDS011;36875;49.468;11.200;2023-04-01T13:27:06;11.98;;;2.75;;
50056;SDS011;36875;49.468;11.200;2023-04-01T13:29:38;6.18;;;2.80;;
50056;SDS011;36875;49.468;11.200;2023-04-01T13:32:13;6.38;;;2.20;;
50056;SDS011;36875;49.468;11.200;2023-04-01T13:34:52;10.80;;;3.00;;
50056;SDS011;36875;49.468;11.200;2023-04-01T13:37:31;8.02;;;2.60;;
50056;SDS011;36875;49.468;11.200;2023-04-01T13:40:15;13.55;;;2.28;;
50056;SDS011;36875;49.468;11.200;2023-04-01T13:42:51;11.13;;;2.20;;
50056;SDS011;36875;49.468;11.200;2023-04-01T13:45:22;14.43;;;2.85;;
50056;SDS011;36875;49.468;11.200;2023-04-01T13:54:09;7.68;;;2.28;;
50056;SDS011;36875;49.468;11.200;2023-04-01T13:56:55;11.60;;;2.28;;
50056;SDS011;36875;49.468;11.200;2023-04-01T13:59:37;9.45;;;2.88;;
50056;SDS011;36875;49.468;11.200;2023-04-01T14:02:28;10.05;;;2.20;;
50056;SDS011;36875;49.468;11.200;2023-04-01T14:05:22;9.43;;;2.13;;
50056;SDS011;36875;49.468;11.200;2023-04-01T14:07:59;8.63;;;2.13;;
50056;SDS011;36875;49.468;11.200;2023-04-01T14:10:36;8.98;;;2.05;;
50056;SDS011;36875;49.468;11.200;2023-04-01T14:13:12;9.32;;;2.05;;
50056;SDS011;36875;49.468;11.200;2023-04-01T14:15:54;6.80;;;1.77;;
50056;SDS011;36875;49.468;11.200;2023-04-01T14:18:37;7.50;;;2.03;;
50056;SDS011;36875;49.468;11.200;2023-04-01T14:21:23;11.93;;;2.13;;
50056;SDS011;36875;49.468;11.200;2023-04-01T14:24:04;9.50;;;1.90;;
50056;SDS011;36875;49.468;11.200;2023-04-01T14:26:49;6.35;;;2.03;;
50056;SDS011;36875;49.468;11.200;2023-04-01T14:29:37;5.47;;;1.70;;
50056;SDS011;36875;49.468;11.200;2023-04-01T14:32:11;9.32;;;2.28;;
50056;SDS011;36875;49.468;11.200;2023-04-01T14:34:54;10.32;;;1.90;;
50056;SDS011;36875;49.468;11.200;2023-04-01T14:37:43;8.00;;;1.85;;
50056;SDS011;36875;49.468;11.200;2023-04-01T14:40:27;5.93;;;1.60;;
50056;SDS011;36875;49.468;11.200;2023-04-01T14:43:10;11.90;;;2.78;;
50056;SDS011;36875;49.468;11.200;2023-04-01T14:46:08;14.15;;;2.35;;
50056;SDS011;36875;49.468;11.200;2023-04-01T14:48:51;10.25;;;1.88;;
50056;SDS011;36875;49.468;11.200;2023-04-01T14:51:21;18.02;;;2.40;;
50056;SDS011;36875;49.468;11.200;2023-04-01T14:53:58;8.27;;;2.15;;
50056;SDS011;36875;49.468;11.200;2023-04-01T14:56:37;12.52;;;2.03;;
50056;SDS011;36875;49.468;11.200;2023-04-01T14:59:06;10.60;;;2.00;;
50056;SDS011;36875;49.468;11.200;2023-04-01T15:01:37;12.25;;;2.30;;
50056;SDS011;36875;49.468;11.200;2023-04-01T15:04:15;3.80;;;1.00;;
50056;SDS011;36875;49.468;11.200;2023-04-01T15:06:56;6.78;;;1.60;;
50056;SDS011;36875;49.468;11.200;2023-04-01T15:09:33;8.70;;;2.05;;
50056;SDS011;36875;49.468;11.200;2023-04-01T15:12:06;5.80;;;1.63;;
50056;SDS011;36875;49.468;11.200;2023-04-01T15:14:46;7.05;;;1.45;;
50056;SDS011;36875;49.468;11.200;2023-04-01T15:17:29;6.38;;;1.90;;
50056;SDS011;36875;49.468;11.200;2023-04-01T15:20:12;9.02;;;1.80;;
50056;SDS011;36875;49.468;11.200;2023-04-01T15:22:50;8.15;;;1.45;;
50056;SDS011;36875;49.468;11.200;2023-04-01T15:25:30;6.35;;;1.50;;
50056;SDS011;36875;49.468;11.200;2023-04-01T15:28:08;5.18;;;1.40;;
50056;SDS011;36875;49.468;11.200;2023-04-01T15:30:45;9.68;;;1.77;;
50056;SDS011;36875;49.468;11.200;2023-04-01T15:33:22;6.18;;;1.58;;
50056;SDS011;36875;49.468;11.200;2023-04-01T15:35:59;4.88;;;1.50;;
50056;SDS011;36875;49.468;11.200;2023-04-01T15:38:33;8.07;;;1.52;;
50056;SDS011;36875;49.468;11.200;2023-04-01T15:41:07;7.78;;;1.42;;
50056;SDS011;36875;49.468;11.200;2023-04-01T15:43:40;6.18;;;1.50;;
50056;SDS011;36875;49.468;11.200;2023-04-01T15:46:11;5.95;;;1.40;;
50056;SDS011;36875;49.468;11.200;2023-04-01T15:48:55;7.78;;;1.55;;
50056;SDS011;36875;49.468;11.200;2023-04-01T15:51:31;6.65;;;1.67;;
50056;SDS011;36875;49.468;11.200;2023-04-01T15:54:23;31.77;;;15.45;;
50056;SDS011;36875;49.468;11.200;2023-04-01T15:57:08;24.27;;;12.38;;
50056;SDS011;36875;49.468;11.200;2023-04-01T16:02:31;18.83;;;9.40;;
50056;SDS011;36875;49.468;11.200;2023-04-01T16:05:04;15.77;;;6.47;;
50056;SDS011;36875;49.468;11.200;2023-04-01T16:07:49;13.23;;;5.10;;
50056;SDS011;36875;49.468;11.200;2023-04-01T16:10:25;11.43;;;4.70;;
50056;SDS011;36875;49.468;11.200;2023-04-01T16:13:09;12.00;;;4.50;;
50056;SDS011;36875;49.468;11.200;2023-04-01T16:15:50;25.17;;;7.20;;
50056;SDS011;36875;49.468;11.200;2023-04-01T16:21:24;22.70;;;9.15;;
50056;SDS011;36875;49.468;11.200;2023-04-01T16:24:02;25.05;;;11.18;;
50056;SDS011;36875;49.468;11.200;2023-04-01T16:26:37;23.92;;;12.50;;
50056;SDS011;36875;49.468;11.200;2023-04-01T16:29:09;38.05;;;17.60;;